createdAt,value
2022-07-26T00:02:21.558Z,23.60
2022-07-26T00:04:48.629Z,23.70
2022-07-26T00:07:15.639Z,23.50
2022-07-26T00:09:48.039Z,23.50
2022-07-26T00:12:15.203Z,23.50
2022-07-26T00:14:43.736Z,23.50
2022-07-26T00:17:10.788Z,23.50
2022-07-26T00:19:37.501Z,23.50
2022-07-26T00:22:22.831Z,23.40
2022-07-26T00:24:49.605Z,23.40
2022-07-26T00:27:16.349Z,23.30
2022-07-26T00:29:43.172Z,23.30
2022-07-26T00:32:09.932Z,23.30
2022-07-26T00:34:36.647Z,23.20
2022-07-26T00:37:03.621Z,23.20
2022-07-26T00:39:30.437Z,23.30
2022-07-26T00:41:57.440Z,23.30
2022-07-26T00:44:24.578Z,23.20
2022-07-26T00:46:51.455Z,23.20
2022-07-26T00:49:18.889Z,23.20
2022-07-26T00:51:46.595Z,23.30
2022-07-26T00:54:13.571Z,23.30
2022-07-26T00:56:40.383Z,23.30
2022-07-26T00:59:07.390Z,23.30
2022-07-26T01:01:34.646Z,23.20
2022-07-26T01:04:05.061Z,23.30
2022-07-26T01:06:33.092Z,23.40
2022-07-26T01:09:04.012Z,23.40
2022-07-26T01:11:31.685Z,23.30
2022-07-26T01:13:59.206Z,23.30
2022-07-26T01:16:26.439Z,23.30
2022-07-26T01:18:54.307Z,23.40
2022-07-26T01:21:25.969Z,23.30
2022-07-26T01:23:53.341Z,23.30
2022-07-26T01:26:20.611Z,23.30
2022-07-26T01:29:00.655Z,23.30
2022-07-26T01:31:27.542Z,23.30
2022-07-26T01:33:57.506Z,23.30
2022-07-26T01:36:37.768Z,23.20
2022-07-26T01:39:06.771Z,23.30
2022-07-26T01:41:38.094Z,23.20
2022-07-26T01:44:07.250Z,23.20
2022-07-26T01:46:35.724Z,23.20
2022-07-26T01:49:03.328Z,23.20
2022-07-26T01:51:30.222Z,23.10
2022-07-26T01:53:57.152Z,23.10
2022-07-26T01:56:24.078Z,23.10
2022-07-26T01:58:50.814Z,23.00
2022-07-26T02:01:39.363Z,23.00
2022-07-26T02:04:04.804Z,23.00
2022-07-26T02:06:31.843Z,23.00
2022-07-26T02:08:58.529Z,23.00
2022-07-26T02:11:26.322Z,23.10
2022-07-26T02:13:53.376Z,22.90
2022-07-26T02:16:20.489Z,23.00
2022-07-26T02:18:47.299Z,22.80
2022-07-26T02:21:14.023Z,22.90
2022-07-26T02:23:41.726Z,22.70
2022-07-26T02:26:09.249Z,22.70
2022-07-26T02:28:36.102Z,22.70
2022-07-26T02:31:03.170Z,22.80
2022-07-26T02:33:29.947Z,22.80
2022-07-26T02:35:56.729Z,22.60
2022-07-26T02:38:25.076Z,22.20
2022-07-26T02:40:52.809Z,22.30
2022-07-26T02:43:19.980Z,22.40
2022-07-26T02:46:03.709Z,22.40
2022-07-26T02:48:31.614Z,22.40
2022-07-26T02:50:58.727Z,22.20
2022-07-26T02:53:25.628Z,22.20
2022-07-26T02:55:52.386Z,22.20
2022-07-26T02:58:21.528Z,22.20
2022-07-26T03:00:48.335Z,22.30
2022-07-26T03:03:15.206Z,22.30
2022-07-26T03:05:42.238Z,22.20
2022-07-26T03:08:09.538Z,22.00
2022-07-26T03:10:37.235Z,22.00
2022-07-26T03:13:04.151Z,21.90
2022-07-26T03:15:31.247Z,22.00
2022-07-26T03:17:58.123Z,22.00
2022-07-26T03:20:24.881Z,21.80
2022-07-26T03:22:51.639Z,21.80
2022-07-26T03:25:18.368Z,21.90
2022-07-26T03:27:45.338Z,21.80
2022-07-26T03:30:12.867Z,21.80
2022-07-26T03:32:39.743Z,21.80
2022-07-26T03:35:07.664Z,21.80
2022-07-26T03:37:45.711Z,21.70
2022-07-26T03:40:14.927Z,21.70
2022-07-26T03:42:41.667Z,21.80
2022-07-26T03:45:09.260Z,21.70
2022-07-26T03:47:37.195Z,21.60
2022-07-26T03:50:07.926Z,21.70
2022-07-26T03:52:34.869Z,21.50
2022-07-26T03:55:21.654Z,21.40
2022-07-26T03:57:48.375Z,21.30
2022-07-26T04:00:15.214Z,21.40
2022-07-26T04:02:41.975Z,21.30
2022-07-26T04:05:09.242Z,21.30
2022-07-26T04:07:52.591Z,21.40
2022-07-26T04:10:21.526Z,21.30
2022-07-26T04:12:48.961Z,21.20
2022-07-26T04:15:17.187Z,21.10
2022-07-26T04:17:44.463Z,21.00
2022-07-26T04:20:14.021Z,20.90
2022-07-26T04:22:41.341Z,20.90
2022-07-26T04:25:09.820Z,20.80
2022-07-26T04:27:37.525Z,20.60
2022-07-26T04:30:09.620Z,20.60
2022-07-26T04:32:39.570Z,20.80
2022-07-26T04:35:06.617Z,20.90
2022-07-26T04:37:39.495Z,21.00
2022-07-26T04:40:07.454Z,20.80
2022-07-26T04:42:34.351Z,20.90
2022-07-26T04:45:07.501Z,21.00
2022-07-26T04:47:35.047Z,21.00
2022-07-26T04:50:02.239Z,21.00
2022-07-26T04:52:29.166Z,21.00
2022-07-26T04:54:55.904Z,21.00
2022-07-26T04:57:22.615Z,20.90
2022-07-26T05:00:03.437Z,20.80
2022-07-26T05:02:36.220Z,21.00
2022-07-26T05:05:03.255Z,21.10
2022-07-26T05:07:42.965Z,21.00
2022-07-26T05:10:10.648Z,20.90
2022-07-26T05:12:37.721Z,20.80
2022-07-26T05:15:05.946Z,20.60
2022-07-26T05:17:43.759Z,20.60
2022-07-26T05:20:15.027Z,20.20
2022-07-26T05:22:42.493Z,20.40
2022-07-26T05:25:09.479Z,20.40
2022-07-26T05:27:36.271Z,20.50
2022-07-26T05:30:03.550Z,20.60
2022-07-26T05:32:30.309Z,20.50
2022-07-26T05:34:57.115Z,20.50
2022-07-26T05:37:23.867Z,20.80
2022-07-26T05:39:50.637Z,20.90
2022-07-26T05:42:17.436Z,20.80
2022-07-26T05:44:44.170Z,20.70
2022-07-26T05:47:13.256Z,20.60
2022-07-26T05:49:40.885Z,20.70
2022-07-26T05:52:08.563Z,20.60
2022-07-26T05:54:35.602Z,20.70
2022-07-26T05:57:02.661Z,20.70
2022-07-26T05:59:29.460Z,20.70
2022-07-26T06:01:56.731Z,20.80
2022-07-26T06:04:26.836Z,20.80
2022-07-26T06:06:54.776Z,20.90
2022-07-26T06:09:24.198Z,20.90
2022-07-26T06:11:51.655Z,20.80
2022-07-26T06:14:18.805Z,20.90
2022-07-26T06:16:49.292Z,20.90
2022-07-26T06:19:16.390Z,20.80
2022-07-26T06:21:45.618Z,20.90
2022-07-26T06:24:12.852Z,20.70
2022-07-26T06:26:40.064Z,20.80
2022-07-26T06:29:06.914Z,20.90
2022-07-26T06:31:34.115Z,21.10
2022-07-26T06:34:00.970Z,21.00
2022-07-26T06:36:30.830Z,20.70
2022-07-26T06:38:58.164Z,20.90
2022-07-26T06:41:24.969Z,21.00
2022-07-26T06:43:51.800Z,21.10
2022-07-26T06:46:20.846Z,21.20
2022-07-26T06:48:52.496Z,21.20
2022-07-26T06:51:20.025Z,21.00
2022-07-26T06:53:46.843Z,21.20
2022-07-26T06:56:14.955Z,21.20
2022-07-26T06:58:42.664Z,21.10
2022-07-26T07:01:09.703Z,21.10
2022-07-26T07:03:36.824Z,21.20
2022-07-26T07:06:04.108Z,21.10
2022-07-26T07:08:30.955Z,20.90
2022-07-26T07:10:58.922Z,20.90
2022-07-26T07:13:25.899Z,21.00
2022-07-26T07:15:52.974Z,21.10
2022-07-26T07:18:21.257Z,21.20
2022-07-26T07:20:47.960Z,21.20
2022-07-26T07:23:14.789Z,21.40
2022-07-26T07:25:41.752Z,21.40
2022-07-26T07:28:11.646Z,21.50
2022-07-26T07:30:38.405Z,21.50
2022-07-26T07:33:05.275Z,21.50
2022-07-26T07:35:32.863Z,21.50
2022-07-26T07:37:59.940Z,21.60
2022-07-26T07:40:26.861Z,21.80
2022-07-26T07:42:53.594Z,21.70
2022-07-26T07:45:20.385Z,21.60
2022-07-26T07:47:47.302Z,21.90
2022-07-26T07:50:14.187Z,22.00
2022-07-26T07:52:41.081Z,21.90
2022-07-26T07:55:41.266Z,21.80
2022-07-26T07:57:55.272Z,21.80
2022-07-26T08:00:26.862Z,22.00
2022-07-26T08:02:54.799Z,22.00
2022-07-26T08:05:21.841Z,22.10
2022-07-26T08:07:49.763Z,22.00
2022-07-26T08:10:19.543Z,22.00
2022-07-26T08:12:46.497Z,21.70
2022-07-26T08:15:19.397Z,21.90
2022-07-26T08:17:51.117Z,21.90
2022-07-26T08:20:21.078Z,21.90
2022-07-26T08:22:50.565Z,22.00
2022-07-26T08:25:17.625Z,22.10
2022-07-26T08:27:51.111Z,22.10
2022-07-26T08:30:29.712Z,22.30
2022-07-26T08:32:56.471Z,22.30
2022-07-26T08:35:23.212Z,22.40
2022-07-26T08:37:50.147Z,22.40
2022-07-26T08:40:17.296Z,22.50
2022-07-26T08:42:55.151Z,22.40
2022-07-26T08:45:26.854Z,22.30
2022-07-26T08:48:16.798Z,22.60
2022-07-26T08:50:41.369Z,22.70
2022-07-26T08:53:09.504Z,22.80
2022-07-26T08:56:04.243Z,22.90
2022-07-26T08:58:24.073Z,22.80
2022-07-26T09:01:05.094Z,23.10
2022-07-26T09:03:32.177Z,23.30
2022-07-26T09:06:18.144Z,23.20
2022-07-26T09:08:47.086Z,23.40
2022-07-26T09:11:33.624Z,23.30
2022-07-26T09:14:06.633Z,23.30
2022-07-26T09:16:38.857Z,23.50
2022-07-26T09:19:22.757Z,23.70
2022-07-26T09:21:50.420Z,23.60
2022-07-26T09:24:41.414Z,23.70
2022-07-26T09:27:12.794Z,23.80
2022-07-26T09:29:54.406Z,23.70
2022-07-26T09:32:26.455Z,23.80
2022-07-26T09:35:23.932Z,23.90
2022-07-26T09:37:57.227Z,23.80
2022-07-26T09:40:24.069Z,23.80
2022-07-26T09:43:06.071Z,23.70
2022-07-26T09:45:35.623Z,23.70
2022-07-26T09:48:03.623Z,23.90
2022-07-26T09:50:33.903Z,24.10
2022-07-26T09:53:03.123Z,24.20
2022-07-26T09:55:40.919Z,24.40
2022-07-26T09:58:14.291Z,24.40
2022-07-26T10:00:41.960Z,24.40
2022-07-26T10:03:08.965Z,24.30
2022-07-26T10:05:36.836Z,24.20
2022-07-26T10:08:04.783Z,24.30
2022-07-26T10:10:37.121Z,23.80
2022-07-26T10:13:04.629Z,23.70
2022-07-26T10:15:40.641Z,23.70
2022-07-26T10:18:10.648Z,24.10
2022-07-26T10:20:48.935Z,24.40
2022-07-26T10:23:39.244Z,24.20
2022-07-26T10:26:09.873Z,24.00
2022-07-26T10:28:38.507Z,24.10
2022-07-26T10:31:20.409Z,24.00
2022-07-26T10:33:52.257Z,24.00
2022-07-26T10:36:26.939Z,23.90
2022-07-26T10:39:16.280Z,24.20
2022-07-26T10:41:48.218Z,24.00
2022-07-26T10:44:22.223Z,24.30
2022-07-26T10:47:07.263Z,24.80
2022-07-26T10:49:34.077Z,24.40
2022-07-26T10:52:23.433Z,24.50
2022-07-26T10:54:59.421Z,24.90
2022-07-26T10:57:26.486Z,25.20
2022-07-26T10:59:56.835Z,24.60
2022-07-26T11:02:36.016Z,24.70
2022-07-26T11:05:15.174Z,24.70
2022-07-26T11:08:11.121Z,24.70
2022-07-26T11:10:40.464Z,24.50
2022-07-26T11:13:23.891Z,24.60
2022-07-26T11:16:00.091Z,24.70
2022-07-26T11:18:30.965Z,24.90
2022-07-26T11:21:07.974Z,25.20
2022-07-26T11:23:36.105Z,25.10
2022-07-26T11:26:05.472Z,25.20
2022-07-26T11:28:47.248Z,25.30
2022-07-26T11:31:15.262Z,25.90
2022-07-26T11:33:46.652Z,25.80
2022-07-26T11:36:13.420Z,25.60
2022-07-26T11:38:53.968Z,25.30
2022-07-26T11:41:20.680Z,26.20
2022-07-26T11:44:02.486Z,26.80
2022-07-26T11:46:40.391Z,26.50
2022-07-26T11:49:41.486Z,26.70
2022-07-26T11:52:12.157Z,26.20
2022-07-26T11:54:49.859Z,25.50
2022-07-26T11:57:17.348Z,25.60
2022-07-26T11:59:46.548Z,25.60
2022-07-26T12:02:14.419Z,26.10
2022-07-26T12:04:44.860Z,26.10
2022-07-26T12:07:21.472Z,26.50
2022-07-26T12:09:51.097Z,26.80
2022-07-26T12:12:29.371Z,26.20
2022-07-26T12:15:00.100Z,26.50
2022-07-26T12:17:35.140Z,26.30
2022-07-26T12:20:17.359Z,26.40
2022-07-26T12:23:00.357Z,25.80
2022-07-26T12:25:28.530Z,25.80
2022-07-26T12:27:55.644Z,25.70
2022-07-26T12:30:23.749Z,25.60
2022-07-26T12:32:55.395Z,26.60
2022-07-26T12:35:35.274Z,27.20
2022-07-26T12:38:02.101Z,27.40
2022-07-26T12:40:30.995Z,26.70
2022-07-26T12:43:02.792Z,26.90
2022-07-26T12:45:35.493Z,27.20
2022-07-26T12:48:07.127Z,27.10
2022-07-26T12:50:33.858Z,27.00
2022-07-26T12:53:04.684Z,26.30
2022-07-26T12:55:31.840Z,25.90
2022-07-26T12:57:59.462Z,26.40
2022-07-26T13:00:28.784Z,26.00
2022-07-26T13:02:57.348Z,27.40
2022-07-26T13:05:24.502Z,28.10
2022-07-26T13:07:55.497Z,28.30
2022-07-26T13:10:33.134Z,27.50
2022-07-26T13:13:01.240Z,27.40
2022-07-26T13:15:37.070Z,27.30
2022-07-26T13:18:07.076Z,28.10
2022-07-26T13:20:34.262Z,27.00
2022-07-26T13:23:02.002Z,26.80
2022-07-26T13:25:31.792Z,27.50
2022-07-26T13:28:06.376Z,27.10
2022-07-26T13:30:33.106Z,27.80
2022-07-26T13:32:59.929Z,28.40
2022-07-26T13:35:28.896Z,28.70
2022-07-26T13:37:55.628Z,28.70
2022-07-26T13:40:24.319Z,28.10
2022-07-26T13:42:53.582Z,27.40
2022-07-26T13:45:20.392Z,28.00
2022-07-26T13:47:47.217Z,28.10
2022-07-26T13:50:13.984Z,27.80
2022-07-26T13:52:40.807Z,26.80
2022-07-26T13:55:07.912Z,27.70
2022-07-26T13:57:47.248Z,26.50
2022-07-26T14:00:21.633Z,26.40
2022-07-26T14:02:48.461Z,26.40
2022-07-26T14:05:15.253Z,26.90
2022-07-26T14:07:42.557Z,28.00
2022-07-26T14:10:09.706Z,27.40
2022-07-26T14:12:38.122Z,27.60
2022-07-26T14:15:11.967Z,27.40
2022-07-26T14:17:40.385Z,26.80
2022-07-26T14:20:09.430Z,26.70
2022-07-26T14:22:36.209Z,26.80
2022-07-26T14:25:02.985Z,26.80
2022-07-26T14:27:29.812Z,26.80
2022-07-26T14:29:56.550Z,27.60
2022-07-26T14:32:23.405Z,28.20
2022-07-26T14:34:50.959Z,27.30
2022-07-26T14:37:41.639Z,27.30
2022-07-26T14:40:07.168Z,27.10
2022-07-26T14:42:34.108Z,27.40
2022-07-26T14:45:00.797Z,26.70
2022-07-26T14:47:27.572Z,27.00
2022-07-26T14:49:54.329Z,26.40
2022-07-26T14:52:21.089Z,26.10
2022-07-26T14:54:47.805Z,26.70
2022-07-26T14:57:14.667Z,27.10
2022-07-26T14:59:41.381Z,27.60
2022-07-26T15:02:10.840Z,27.20
2022-07-26T15:04:37.653Z,27.00
2022-07-26T15:07:04.513Z,26.40
2022-07-26T15:09:31.250Z,26.80
2022-07-26T15:11:58.711Z,27.10
2022-07-26T15:14:25.463Z,27.50
2022-07-26T15:16:52.318Z,28.20
2022-07-26T15:19:25.133Z,27.40
2022-07-26T15:21:53.916Z,26.90
2022-07-26T15:24:20.853Z,26.40
2022-07-26T15:26:50.116Z,26.40
2022-07-26T15:29:16.841Z,26.50
2022-07-26T15:31:44.463Z,26.80
2022-07-26T15:34:11.518Z,26.90
2022-07-26T15:36:38.606Z,27.30
2022-07-26T15:39:16.636Z,27.70
2022-07-26T15:41:43.933Z,27.70
2022-07-26T15:44:11.591Z,26.90
2022-07-26T15:46:39.895Z,26.40
2022-07-26T15:49:07.760Z,26.50
2022-07-26T15:51:34.799Z,27.30
2022-07-26T15:54:03.137Z,27.20
2022-07-26T15:56:30.033Z,27.20
2022-07-26T15:58:56.836Z,26.80
2022-07-26T16:01:24.163Z,26.40
2022-07-26T16:03:50.908Z,26.40
2022-07-26T16:06:17.819Z,26.20
2022-07-26T16:09:05.787Z,26.40
2022-07-26T16:11:31.753Z,26.30
2022-07-26T16:14:01.497Z,26.30
2022-07-26T16:16:32.384Z,26.10
2022-07-26T16:18:59.277Z,26.10
2022-07-26T16:21:26.042Z,25.80
2022-07-26T16:23:52.891Z,25.90
2022-07-26T16:26:19.811Z,25.90
2022-07-26T16:28:46.666Z,26.10
2022-07-26T16:31:13.512Z,26.20
2022-07-26T16:33:46.010Z,26.20
2022-07-26T16:36:13.216Z,26.40
2022-07-26T16:38:40.002Z,26.40
2022-07-26T16:41:06.890Z,27.00
2022-07-26T16:43:34.574Z,26.40
2022-07-26T16:46:01.383Z,26.40
2022-07-26T16:48:28.181Z,26.40
2022-07-26T16:50:55.094Z,26.40
2022-07-26T16:53:21.810Z,26.30
2022-07-26T16:55:51.345Z,26.10
2022-07-26T16:58:19.213Z,26.00
2022-07-26T17:00:46.205Z,26.00
2022-07-26T17:03:15.671Z,25.80
2022-07-26T17:05:44.579Z,25.80
2022-07-26T17:08:11.849Z,25.80
2022-07-26T17:10:38.879Z,26.00
2022-07-26T17:13:05.925Z,25.80
2022-07-26T17:15:32.855Z,25.60
2022-07-26T17:17:59.672Z,25.90
2022-07-26T17:20:27.124Z,25.80
2022-07-26T17:22:55.802Z,25.80
2022-07-26T17:25:22.580Z,25.90
2022-07-26T17:27:50.633Z,25.90
2022-07-26T17:30:17.754Z,25.80
2022-07-26T17:32:44.642Z,25.60
2022-07-26T17:35:11.422Z,25.50
2022-07-26T17:37:38.180Z,25.50
2022-07-26T17:40:08.383Z,25.60
2022-07-26T17:42:36.365Z,25.50
2022-07-26T17:45:04.448Z,25.50
2022-07-26T17:47:31.450Z,25.50
2022-07-26T17:52:50.722Z,25.40
2022-07-26T17:55:19.216Z,25.20
2022-07-26T17:57:47.701Z,25.20
2022-07-26T18:00:16.634Z,25.20
2022-07-26T18:02:43.602Z,25.20
2022-07-26T18:05:11.288Z,25.20
2022-07-26T18:07:38.807Z,25.00
2022-07-26T18:10:06.509Z,25.00
2022-07-26T18:12:33.387Z,25.10
2022-07-26T18:15:00.079Z,25.00
2022-07-26T18:17:26.910Z,24.90
2022-07-26T18:19:53.713Z,24.90
2022-07-26T18:22:20.470Z,24.80
2022-07-26T18:24:47.262Z,24.70
2022-07-26T18:27:13.969Z,24.70
2022-07-26T18:29:42.058Z,24.60
2022-07-26T18:32:08.924Z,24.60
2022-07-26T18:34:35.674Z,24.60
2022-07-26T18:37:02.610Z,24.60
2022-07-26T18:39:32.682Z,24.60
2022-07-26T18:42:00.424Z,24.50
2022-07-26T18:44:27.377Z,24.50
2022-07-26T18:46:56.388Z,24.40
2022-07-26T18:49:23.742Z,24.40
2022-07-26T18:52:00.692Z,24.40
2022-07-26T18:54:32.780Z,24.30
2022-07-26T18:56:59.622Z,24.30
2022-07-26T18:59:26.334Z,24.10
2022-07-26T19:01:53.108Z,24.20
2022-07-26T19:04:19.939Z,24.10
2022-07-26T19:06:49.174Z,24.10
2022-07-26T19:09:16.649Z,24.00
2022-07-26T19:11:47.853Z,23.90
2022-07-26T19:14:14.939Z,23.80
2022-07-26T19:16:41.797Z,23.70
2022-07-26T19:19:08.966Z,23.60
2022-07-26T19:21:35.871Z,23.60
2022-07-26T19:24:02.673Z,23.50
2022-07-26T19:26:29.773Z,23.50
2022-07-26T19:28:56.593Z,23.40
2022-07-26T19:31:23.922Z,23.30
2022-07-26T19:33:50.761Z,23.30
2022-07-26T19:36:18.185Z,23.20
2022-07-26T19:38:54.765Z,23.20
2022-07-26T19:41:23.778Z,23.20
2022-07-26T19:43:53.593Z,23.20
2022-07-26T19:46:20.422Z,23.10
2022-07-26T19:48:48.290Z,23.00
2022-07-26T19:51:15.030Z,22.90
2022-07-26T19:53:41.725Z,22.90
2022-07-26T19:56:08.522Z,22.80
2022-07-26T19:58:35.279Z,22.80
2022-07-26T20:01:02.616Z,22.80
2022-07-26T20:03:31.883Z,22.70
2022-07-26T20:06:00.236Z,22.70
2022-07-26T20:08:26.987Z,22.70
2022-07-26T20:10:53.727Z,22.60
2022-07-26T20:13:20.471Z,22.70
2022-07-26T20:15:47.372Z,22.60
2022-07-26T20:18:14.191Z,22.60
2022-07-26T20:20:40.950Z,22.40
2022-07-26T20:23:10.882Z,22.40
2022-07-26T20:25:37.850Z,22.30
2022-07-26T20:28:04.762Z,22.40
2022-07-26T20:30:31.540Z,22.40
2022-07-26T20:32:58.333Z,22.30
2022-07-26T20:35:25.039Z,22.30
2022-07-26T20:37:51.918Z,22.30
2022-07-26T20:40:18.869Z,22.30
2022-07-26T20:42:47.663Z,22.20
2022-07-26T20:45:17.190Z,22.10
2022-07-26T20:47:44.159Z,22.20
2022-07-26T20:50:12.120Z,22.10
2022-07-26T20:52:39.290Z,22.10
2022-07-26T20:55:06.718Z,21.90
2022-07-26T20:57:33.498Z,21.90
2022-07-26T21:00:00.421Z,21.90
2022-07-26T21:02:27.366Z,21.90
2022-07-26T21:04:55.269Z,21.80
2022-07-26T21:07:22.263Z,21.70
2022-07-26T21:09:48.963Z,21.60
2022-07-26T21:12:15.713Z,21.60
2022-07-26T21:14:42.475Z,21.70
2022-07-26T21:17:12.082Z,21.60
2022-07-26T21:19:39.371Z,21.60
2022-07-26T21:22:06.739Z,21.60
2022-07-26T21:24:35.021Z,21.50
2022-07-26T21:27:03.141Z,21.70
2022-07-26T21:29:30.111Z,21.70
2022-07-26T21:31:56.904Z,21.80
2022-07-26T21:34:26.560Z,21.90
2022-07-26T21:36:54.228Z,21.90
2022-07-26T21:39:21.476Z,21.80
2022-07-26T21:41:48.868Z,21.80
2022-07-26T21:44:15.575Z,21.90
2022-07-26T21:46:42.450Z,22.00
2022-07-26T21:49:09.912Z,21.80
2022-07-26T21:51:36.936Z,21.90
2022-07-26T21:54:03.803Z,21.90
2022-07-26T21:56:30.565Z,22.00
2022-07-26T21:58:57.363Z,22.10
2022-07-26T22:01:24.140Z,22.20
2022-07-26T22:03:51.223Z,22.10
2022-07-26T22:06:18.315Z,21.90
2022-07-26T22:08:45.582Z,21.70
2022-07-26T22:11:12.384Z,21.70
2022-07-26T22:13:39.802Z,21.70
2022-07-26T22:16:06.937Z,21.60
2022-07-26T22:18:33.791Z,21.40
2022-07-26T22:21:01.083Z,21.40
2022-07-26T22:23:30.518Z,21.60
2022-07-26T22:25:59.426Z,21.40
2022-07-26T22:28:26.323Z,21.40
2022-07-26T22:30:54.543Z,21.50
2022-07-26T22:33:22.249Z,21.40
2022-07-26T22:35:49.101Z,21.50
2022-07-26T22:38:16.399Z,21.60
2022-07-26T22:40:44.285Z,21.70
2022-07-26T22:43:12.185Z,21.60
2022-07-26T22:45:39.072Z,21.60
2022-07-26T22:48:07.130Z,21.60
2022-07-26T22:50:34.032Z,21.70
2022-07-26T22:53:01.268Z,21.80
2022-07-26T22:55:28.572Z,21.90
2022-07-26T22:57:55.324Z,21.90
2022-07-26T23:00:22.217Z,21.70
2022-07-26T23:02:49.085Z,21.60
2022-07-26T23:05:16.138Z,21.80
2022-07-26T23:07:45.941Z,21.70
2022-07-26T23:10:15.601Z,21.70
2022-07-26T23:12:42.551Z,21.70
2022-07-26T23:15:10.729Z,21.50
2022-07-26T23:17:37.884Z,21.70
2022-07-26T23:20:06.836Z,21.60
2022-07-26T23:22:34.089Z,21.50
2022-07-26T23:25:01.063Z,21.40
2022-07-26T23:27:27.816Z,21.50
2022-07-26T23:29:54.642Z,21.60
2022-07-26T23:32:21.506Z,21.50
2022-07-26T23:34:48.259Z,21.50
2022-07-26T23:37:15.058Z,21.40
2022-07-26T23:39:41.768Z,21.50
2022-07-26T23:42:08.586Z,21.50
2022-07-26T23:44:35.341Z,21.30
2022-07-26T23:47:02.267Z,21.30
2022-07-26T23:49:29.440Z,21.30
2022-07-26T23:51:56.296Z,21.20
2022-07-26T23:54:23.038Z,21.10
2022-07-26T23:56:49.898Z,21.30
2022-07-26T23:59:16.824Z,21.50
